West Plains, MO

7:17 AM CDT on October 02, 2014 (GMT -0500)
Cedar Lane | Change Station
CLOSE
Current Station
Personal Weather Station
Location: West Plains, MO
Elevation: 1068 ft
Nearby Weather Stations

Elev 1068 ft 36.75 °N, 91.90 °W | Updated 1 second ago

Mostly Cloudy
Mostly Cloudy
66.4 °F
Feels Like 66.4 °F
N
0.0
Wind Variable Wind from SE
Gusts 0.0 mph

Today
High -- | Low -- °F
--% Chance of Precip.
Yesterday
High -- | Low -- °F
Precip. -- in
7:03 AM 6:49 PM
First Quarter, 58% visible
Pressure 29.86 in
Visibility 7.0 miles
Clouds Overcast 2300 ft
Dew Point 62 °F
Humidity 85%
Rainfall 0.00 in
Snow Depth Not available.
UV 0 out of 12
Pollen .50 out of 12
Air Quality Not available.
Flu Activity Not available.
METAR KUNO 021153Z AUTO 16006KT 7SM OVC023 21/19 A2989 RMK AO2 SLP109 T02060189 10222 20200 53009

More Conditions Fewer Conditions

Pressure 29.86 in
Visibility 7.0 miles
Clouds Overcast 2300 ft
Dew Point 62 °F
Humidity 85%
Rainfall 0.00 in
Snow Depth Not available.
UV 0 out of 12
Pollen .50 out of 12
Air Quality Not available.
Flu Activity Not available.
METAR KUNO 021153Z AUTO 16006KT 7SM OVC023 21/19 A2989 RMK AO2 SLP109 T02060189 10222 20200 53009

More Conditions Fewer Conditions

10-Day Weather Forecast

Almanac

Astronomy

Oct. 02, 2014 Rise Set
Actual Time 7:03 AM CDT 6:49 PM CDT
Civil Twilight 6:37 AM CDT 7:15 PM CDT
Nautical Twilight 6:07 AM CDT 7:45 PM CDT
Astronomical Twilight 5:37 AM CDT 8:15 PM CDT
Moon 2:48 PM CDT 12:29 AM CDT
Length of Visible Light 12h 37m
Length of Day
11h 45m
Tomorrow will be 2m 19s shorter.
First Quarter, 58% of the Moon is Illuminated
Today
First Quarter
Oct 8
Full
Oct 15
Last Quarter
Oct 23
New
Oct 30
First Quarter

Community

WunderPhotos

Upload Photos

1,758,223 photos uploaded!

WunderBlogs® & News

Nearby

Snow Depth

Station Depth Elevation
No new snow has been reported.

Earthquake Activity

City Distance Mag. Time & Date
No recent earthquake activity has been reported nearby.
Minimum magnitude displayed is 2.5.

Coastal Water Temperatures

Place Temperature
No Stations Reporting

Nearby Weather Stations